createdAt,value
2019-03-25T00:04:31.001Z,7.82
2019-03-25T00:09:32.624Z,7.65
2019-03-25T00:14:34.174Z,7.73
2019-03-25T00:19:35.831Z,7.71
2019-03-25T00:24:39.131Z,7.72
2019-03-25T00:29:41.129Z,7.67
2019-03-25T00:34:42.876Z,7.60
2019-03-25T00:39:44.673Z,7.59
2019-03-25T00:44:46.248Z,7.56
2019-03-25T00:49:48.501Z,7.47
2019-03-25T00:54:50.479Z,7.42
2019-03-25T00:59:52.215Z,7.32
2019-03-25T01:04:53.767Z,7.25
2019-03-25T01:09:55.373Z,7.20
2019-03-25T01:14:57.062Z,7.19
2019-03-25T01:19:59.752Z,7.17
2019-03-25T01:25:02.589Z,7.18
2019-03-25T01:30:09.627Z,7.21
2019-03-25T01:35:11.587Z,7.20
2019-03-25T01:40:13.853Z,7.22
2019-03-25T01:45:15.450Z,7.26
2019-03-25T01:50:17.075Z,7.24
2019-03-25T01:55:18.733Z,7.20
2019-03-25T02:00:20.287Z,7.13
2019-03-25T02:05:21.847Z,7.06
2019-03-25T02:10:23.412Z,7.00
2019-03-25T02:15:25.073Z,6.94
2019-03-25T02:20:27.064Z,6.92
2019-03-25T02:25:28.740Z,6.86
2019-03-25T02:30:30.442Z,6.84
2019-03-25T02:35:32.034Z,6.79
2019-03-25T02:40:33.583Z,6.75
2019-03-25T02:45:35.153Z,6.76
2019-03-25T02:50:36.773Z,6.74
2019-03-25T02:55:42.080Z,6.69
2019-03-25T03:00:41.884Z,6.64
2019-03-25T03:05:43.635Z,6.69
2019-03-25T03:10:45.201Z,6.69
2019-03-25T03:15:56.765Z,6.67
2019-03-25T03:20:58.384Z,6.68
2019-03-25T03:25:59.933Z,6.65
2019-03-25T03:31:01.489Z,6.62
2019-03-25T03:36:03.157Z,6.71
2019-03-25T03:41:05.499Z,6.65
2019-03-25T03:46:07.850Z,6.56
2019-03-25T03:51:09.683Z,6.57
2019-03-25T03:56:14.005Z,6.58
2019-03-25T04:01:14.926Z,6.61
2019-03-25T04:06:16.602Z,6.59
2019-03-25T04:11:19.276Z,6.51
2019-03-25T04:16:20.896Z,6.54
2019-03-25T04:21:22.513Z,6.56
2019-03-25T04:26:28.824Z,6.54
2019-03-25T04:31:27.522Z,6.58
2019-03-25T04:36:29.075Z,6.56
2019-03-25T04:41:30.634Z,6.54
2019-03-25T04:46:32.185Z,6.42
2019-03-25T04:51:33.811Z,6.37
2019-03-25T04:56:39.987Z,6.38
2019-03-25T05:01:38.862Z,6.33
2019-03-25T05:06:40.407Z,6.32
2019-03-25T05:11:41.966Z,6.28
2019-03-25T05:16:43.632Z,6.27
2019-03-25T05:21:45.213Z,6.26
2019-03-25T05:26:51.309Z,6.28
2019-03-25T05:31:50.284Z,6.27
2019-03-25T05:36:51.872Z,6.23
2019-03-25T05:41:53.440Z,6.20
2019-03-25T05:46:55.039Z,6.21
2019-03-25T05:51:56.598Z,6.22
2019-03-25T05:57:02.737Z,6.22
2019-03-25T06:02:03.052Z,6.22
2019-03-25T06:07:04.606Z,6.16
2019-03-25T06:12:06.157Z,6.13
2019-03-25T06:17:07.786Z,6.14
2019-03-25T06:22:09.421Z,6.11
2019-03-25T06:27:14.437Z,6.18
2019-03-25T06:32:14.484Z,6.22
2019-03-25T06:37:16.040Z,6.21
2019-03-25T06:42:17.596Z,6.20
2019-03-25T06:47:20.156Z,6.18
2019-03-25T06:52:21.716Z,6.38
2019-03-25T06:57:25.770Z,6.54
2019-03-25T07:02:26.763Z,6.86
2019-03-25T07:07:28.319Z,6.99
2019-03-25T07:12:29.975Z,6.83
2019-03-25T07:17:32.727Z,6.64
2019-03-25T07:22:34.720Z,6.40
2019-03-25T07:27:37.337Z,6.44
2019-03-25T07:32:39.084Z,6.38
2019-03-25T07:37:40.634Z,6.61
2019-03-25T07:42:43.028Z,6.78
2019-03-25T07:47:44.881Z,6.93
2019-03-25T07:52:47.578Z,7.21
2019-03-25T07:57:49.191Z,7.56
2019-03-25T08:02:50.778Z,8.00
2019-03-25T08:07:52.392Z,8.02
2019-03-25T08:12:55.073Z,7.87
2019-03-25T08:17:56.784Z,8.02
2019-03-25T08:22:58.387Z,8.44
2019-03-25T08:28:02.233Z,9.26
2019-03-25T08:33:03.994Z,9.67
2019-03-25T08:38:05.660Z,9.80
2019-03-25T08:43:07.420Z,9.78
2019-03-25T08:48:09.400Z,9.81
2019-03-25T08:53:11.118Z,9.80
2019-03-25T08:58:12.825Z,9.50
2019-03-25T09:03:14.486Z,9.94
2019-03-25T09:08:16.249Z,10.61
2019-03-25T09:13:17.823Z,11.06
2019-03-25T09:18:19.456Z,10.88
2019-03-25T09:23:21.509Z,10.18
2019-03-25T09:28:24.588Z,9.97
2019-03-25T09:33:26.547Z,9.48
2019-03-25T09:38:29.295Z,9.48
2019-03-25T09:43:31.048Z,9.36
2019-03-25T09:48:32.608Z,9.24
2019-03-25T09:53:34.161Z,9.07
2019-03-25T09:58:36.745Z,9.05
2019-03-25T10:03:38.519Z,9.22
2019-03-25T10:08:40.217Z,9.34
2019-03-25T10:13:41.787Z,9.16
2019-03-25T10:18:43.400Z,9.35
2019-03-25T10:23:45.091Z,9.54
2019-03-25T10:28:49.026Z,10.08
2019-03-25T10:33:50.187Z,10.62
2019-03-25T10:38:51.806Z,11.01
2019-03-25T10:43:53.364Z,11.28
2019-03-25T10:48:54.962Z,11.64
2019-03-25T10:53:56.656Z,11.58
2019-03-25T10:58:58.576Z,11.10
2019-03-25T11:04:00.277Z,10.85
2019-03-25T11:09:04.180Z,10.60
2019-03-25T11:14:06.902Z,10.15
2019-03-25T11:19:08.711Z,9.82
2019-03-25T11:24:10.319Z,8.94
2019-03-25T11:29:11.874Z,7.85
2019-03-25T11:34:13.433Z,6.90
2019-03-25T11:39:15.202Z,6.83
2019-03-25T11:44:17.396Z,6.98
2019-03-25T11:49:18.959Z,7.08
2019-03-25T11:54:40.740Z,7.53
2019-03-25T11:59:42.420Z,8.48
2019-03-25T12:04:44.010Z,8.82
2019-03-25T12:09:45.665Z,9.42
2019-03-25T12:14:47.553Z,10.17
2019-03-25T12:19:49.225Z,10.64
2019-03-25T12:24:50.788Z,11.21
2019-03-25T12:29:52.389Z,11.10
2019-03-25T12:34:53.983Z,11.01
2019-03-25T12:39:58.519Z,11.77
2019-03-25T12:45:00.168Z,12.33
2019-03-25T12:50:04.582Z,12.54
2019-03-25T12:55:06.851Z,12.25
2019-03-25T13:00:09.922Z,11.56
2019-03-25T13:05:11.953Z,10.86
2019-03-25T13:10:13.901Z,10.25
2019-03-25T13:15:15.493Z,9.80
2019-03-25T13:20:17.103Z,9.25
2019-03-25T13:25:18.673Z,8.52
2019-03-25T13:30:20.631Z,7.07
2019-03-25T13:35:22.324Z,6.32
2019-03-25T13:40:24.028Z,5.83
2019-03-25T13:45:25.581Z,5.33
2019-03-25T13:50:27.180Z,5.34
2019-03-25T13:55:29.048Z,5.25
2019-03-25T14:00:34.313Z,5.38
2019-03-25T14:05:35.870Z,5.89
2019-03-25T14:10:37.519Z,6.76
2019-03-25T14:15:39.281Z,6.36
2019-03-25T14:20:40.904Z,6.07
2019-03-25T14:25:42.472Z,5.73
2019-03-25T14:30:44.040Z,5.64
2019-03-25T14:35:45.617Z,5.79
2019-03-25T14:40:47.328Z,6.04
2019-03-25T14:45:48.883Z,6.13
2019-03-25T14:50:50.748Z,6.22
2019-03-25T14:55:52.429Z,6.21
2019-03-25T15:00:53.990Z,6.52
2019-03-25T15:05:55.540Z,6.72
2019-03-25T15:10:57.483Z,6.73
2019-03-25T15:15:59.346Z,6.90
2019-03-25T15:21:01.053Z,6.79
2019-03-25T15:26:02.953Z,6.70
2019-03-25T15:31:04.782Z,6.48
2019-03-25T15:36:06.346Z,6.49
2019-03-25T15:41:07.902Z,6.39
2019-03-25T15:46:09.527Z,6.43
2019-03-25T15:51:11.188Z,6.37
2019-03-25T15:56:12.759Z,6.28
2019-03-25T16:01:14.787Z,6.10
2019-03-25T16:06:16.700Z,6.00
2019-03-25T16:11:18.607Z,5.76
2019-03-25T16:16:20.447Z,5.65
2019-03-25T16:21:23.251Z,5.57
2019-03-25T16:26:24.962Z,5.46
2019-03-25T16:31:26.858Z,5.42
2019-03-25T16:36:28.426Z,5.29
2019-03-25T16:41:30.006Z,5.23
2019-03-25T16:46:31.800Z,5.13
2019-03-25T16:51:33.385Z,5.16
2019-03-25T16:56:34.948Z,5.15
2019-03-25T17:01:36.504Z,5.16
2019-03-25T17:06:38.170Z,5.08
2019-03-25T17:11:39.750Z,5.03
2019-03-25T17:16:41.347Z,4.96
2019-03-25T17:21:43.167Z,4.78
2019-03-25T17:26:44.728Z,4.80
2019-03-25T17:31:46.325Z,4.80
2019-03-25T17:36:47.984Z,4.76
2019-03-25T17:41:49.583Z,4.57
2019-03-25T17:46:51.562Z,4.51
2019-03-25T17:51:53.122Z,4.49
2019-03-25T17:56:54.679Z,4.32
2019-03-25T18:01:56.337Z,4.28
2019-03-25T18:06:58.167Z,4.24
2019-03-25T18:11:59.821Z,4.18
2019-03-25T18:17:01.381Z,4.14
2019-03-25T18:22:03.710Z,4.10
2019-03-25T18:27:05.373Z,4.06
2019-03-25T18:32:07.132Z,4.03
2019-03-25T18:37:08.789Z,4.05
2019-03-25T18:42:10.335Z,4.13
2019-03-25T18:47:11.889Z,4.12
2019-03-25T18:52:13.672Z,4.15
2019-03-25T18:57:15.235Z,4.15
2019-03-25T19:02:16.929Z,4.20
2019-03-25T19:07:18.696Z,4.17
2019-03-25T19:12:21.866Z,4.15
2019-03-25T19:17:23.418Z,4.16
2019-03-25T19:22:25.347Z,4.18
2019-03-25T19:27:26.973Z,4.24
2019-03-25T19:32:28.560Z,4.23
2019-03-25T19:37:30.145Z,4.20
2019-03-25T19:42:31.704Z,4.18
2019-03-25T19:47:33.272Z,4.16
2019-03-25T19:52:35.046Z,4.13
2019-03-25T19:57:36.643Z,4.10
2019-03-25T20:02:38.514Z,3.94
2019-03-25T20:07:40.189Z,3.78
2019-03-25T20:12:41.755Z,3.83
2019-03-25T20:17:43.447Z,3.73
2019-03-25T20:22:45.092Z,3.75
2019-03-25T20:27:46.738Z,3.72
2019-03-25T20:32:48.360Z,3.70
2019-03-25T20:37:49.931Z,3.59
2019-03-25T20:42:51.766Z,3.49
2019-03-25T20:47:53.442Z,3.48
2019-03-25T20:52:55.096Z,3.41
2019-03-25T20:57:56.636Z,3.34
2019-03-25T21:02:58.294Z,3.26
2019-03-25T21:07:59.917Z,3.32
2019-03-25T21:13:01.867Z,3.25
2019-03-25T21:18:06.418Z,3.24
2019-03-25T21:23:08.119Z,3.18
2019-03-25T21:28:09.789Z,3.11
2019-03-25T21:33:11.493Z,3.06
2019-03-25T21:38:13.365Z,2.98
2019-03-25T21:43:14.981Z,3.04
2019-03-25T21:48:16.679Z,2.99
2019-03-25T21:53:18.304Z,2.98
2019-03-25T21:58:20.021Z,3.00
2019-03-25T22:03:21.684Z,3.03
2019-03-25T22:08:23.250Z,3.09
2019-03-25T22:13:24.805Z,3.18
2019-03-25T22:18:26.376Z,3.24
2019-03-25T22:23:28.062Z,3.18
2019-03-25T22:28:29.920Z,3.10
2019-03-25T22:33:31.624Z,3.00
2019-03-25T22:38:33.212Z,3.01
2019-03-25T22:43:34.771Z,3.03
2019-03-25T22:48:36.337Z,3.08
2019-03-25T22:53:37.946Z,3.06
2019-03-25T22:58:39.593Z,3.07
2019-03-25T23:03:43.134Z,3.02
2019-03-25T23:08:46.647Z,2.97
2019-03-25T23:13:49.955Z,2.94
2019-03-25T23:18:53.266Z,2.96
2019-03-25T23:23:58.527Z,2.95
2019-03-25T23:29:03.822Z,2.92
2019-03-25T23:34:06.018Z,2.88
2019-03-25T23:39:07.862Z,2.89
2019-03-25T23:44:09.465Z,2.87
2019-03-25T23:49:11.226Z,2.91
2019-03-25T23:54:13.980Z,2.83
2019-03-25T23:59:15.602Z,2.74
